sensor_id;sensor_type;location;lat;lon;timestamp;pressure;altitude;pressure_sealevel;temperature;humidity
24746;BME280;12845;52.042;6.838;2023-05-11T00:00:01;-18425.44;;;14.78;100.00
24746;BME280;12845;52.042;6.838;2023-05-11T00:02:27;-18427.91;;;14.87;100.00
24746;BME280;12845;52.042;6.838;2023-05-11T00:04:52;-18425.44;;;14.78;100.00
24746;BME280;12845;52.042;6.838;2023-05-11T00:07:18;-18429.53;;;14.93;100.00
24746;BME280;12845;52.042;6.838;2023-05-11T00:09:43;-18428.03;;;14.87;100.00
24746;BME280;12845;52.042;6.838;2023-05-11T00:12:08;-18431.03;;;14.99;100.00
24746;BME280;12845;52.042;6.838;2023-05-11T00:14:33;-18427.06;;;14.84;100.00
24746;BME280;12845;52.042;6.838;2023-05-11T00:16:59;-18426.53;;;14.82;100.00
24746;BME280;12845;52.042;6.838;2023-05-11T00:19:24;-18425.72;;;14.79;100.00
24746;BME280;12845;52.042;6.838;2023-05-11T00:21:49;-18427.22;;;14.84;100.00
24746;BME280;12845;52.042;6.838;2023-05-11T00:24:15;-18426.94;;;14.83;100.00
24746;BME280;12845;52.042;6.838;2023-05-11T00:26:40;-18425.97;;;14.80;100.00
24746;BME280;12845;52.042;6.838;2023-05-11T00:29:05;-18427.91;;;14.87;100.00
24746;BME280;12845;52.042;6.838;2023-05-11T00:31:30;-18428.44;;;14.89;100.00
24746;BME280;12845;52.042;6.838;2023-05-11T00:33:56;-18425.28;;;14.77;100.00
24746;BME280;12845;52.042;6.838;2023-05-11T00:36:21;-18427.06;;;14.84;100.00
24746;BME280;12845;52.042;6.838;2023-05-11T00:38:47;-18425.03;;;14.76;100.00
24746;BME280;12845;52.042;6.838;2023-05-11T00:41:14;-18427.91;;;14.87;100.00
24746;BME280;12845;52.042;6.838;2023-05-11T00:43:39;-18429.94;;;14.95;100.00
24746;BME280;12845;52.042;6.838;2023-05-11T00:46:05;-18425.03;;;14.76;100.00
24746;BME280;12845;52.042;6.838;2023-05-11T00:48:30;-18423.50;;;14.71;100.00
24746;BME280;12845;52.042;6.838;2023-05-11T00:50:57;-18426.53;;;14.82;100.00
24746;BME280;12845;52.042;6.838;2023-05-11T00:53:23;-18428.72;;;14.90;100.00
24746;BME280;12845;52.042;6.838;2023-05-11T00:55:49;-18426.94;;;14.83;100.00
24746;BME280;12845;52.042;6.838;2023-05-11T00:58:14;-18425.72;;;14.79;100.00
24746;BME280;12845;52.042;6.838;2023-05-11T01:00:40;-18429.81;;;14.94;100.00
24746;BME280;12845;52.042;6.838;2023-05-11T01:03:05;-18430.63;;;14.97;100.00
24746;BME280;12845;52.042;6.838;2023-05-11T01:05:56;-18427.34;;;14.85;100.00
24746;BME280;12845;52.042;6.838;2023-05-11T01:08:17;-18421.88;;;14.64;100.00
24746;BME280;12845;52.042;6.838;2023-05-11T01:11:00;-18420.22;;;14.58;100.00
24746;BME280;12845;52.042;6.838;2023-05-11T01:13:33;-18421.31;;;14.62;100.00
24746;BME280;12845;52.042;6.838;2023-05-11T01:16:04;-18422.56;;;14.67;100.00
24746;BME280;12845;52.042;6.838;2023-05-11T01:18:38;-18424.19;;;14.73;100.00
24746;BME280;12845;52.042;6.838;2023-05-11T01:21:04;-18424.59;;;14.75;100.00
24746;BME280;12845;52.042;6.838;2023-05-11T01:23:42;-18424.59;;;14.75;100.00
24746;BME280;12845;52.042;6.838;2023-05-11T01:31:20;-18425.44;;;14.78;100.00
24746;BME280;12845;52.042;6.838;2023-05-11T01:34:09;-18426.25;;;14.81;100.00
24746;BME280;12845;52.042;6.838;2023-05-11T01:36:33;-18426.13;;;14.80;100.00
24746;BME280;12845;52.042;6.838;2023-05-11T01:39:02;-18424.34;;;14.74;100.00
24746;BME280;12845;52.042;6.838;2023-05-11T01:41:28;-18425.44;;;14.78;100.00
24746;BME280;12845;52.042;6.838;2023-05-11T01:43:56;-18423.38;;;14.70;100.00
24746;BME280;12845;52.042;6.838;2023-05-11T01:46:24;-18420.38;;;14.59;100.00
24746;BME280;12845;52.042;6.838;2023-05-11T01:48:51;-18421.88;;;14.64;100.00
24746;BME280;12845;52.042;6.838;2023-05-11T01:51:16;-18422.56;;;14.67;100.00
24746;BME280;12845;52.042;6.838;2023-05-11T01:53:43;-18422.16;;;14.65;100.00
24746;BME280;12845;52.042;6.838;2023-05-11T01:56:09;-18419.69;;;14.56;100.00
24746;BME280;12845;52.042;6.838;2023-05-11T01:58:35;-18418.59;;;14.52;100.00
24746;BME280;12845;52.042;6.838;2023-05-11T02:01:01;-18418.88;;;14.53;100.00
24746;BME280;12845;52.042;6.838;2023-05-11T02:03:28;-18418.31;;;14.51;100.00
24746;BME280;12845;52.042;6.838;2023-05-11T02:05:55;-18417.50;;;14.48;100.00
24746;BME280;12845;52.042;6.838;2023-05-11T02:08:21;-18417.50;;;14.48;100.00
24746;BME280;12845;52.042;6.838;2023-05-11T02:10:47;-18416.13;;;14.43;100.00
24746;BME280;12845;52.042;6.838;2023-05-11T02:13:14;-18415.84;;;14.42;100.00
24746;BME280;12845;52.042;6.838;2023-05-11T02:15:43;-18412.41;;;14.29;100.00
24746;BME280;12845;52.042;6.838;2023-05-11T02:18:13;-18412.28;;;14.29;100.00
24746;BME280;12845;52.042;6.838;2023-05-11T02:20:39;-18412.84;;;14.31;100.00
24746;BME280;12845;52.042;6.838;2023-05-11T02:23:06;-18408.88;;;14.16;100.00
24746;BME280;12845;52.042;6.838;2023-05-11T02:25:32;-18409.81;;;14.19;100.00
24746;BME280;12845;52.042;6.838;2023-05-11T02:27:57;-18409.81;;;14.19;100.00
24746;BME280;12845;52.042;6.838;2023-05-11T02:30:24;-18407.75;;;14.12;100.00
24746;BME280;12845;52.042;6.838;2023-05-11T02:32:50;-18408.59;;;14.15;100.00
24746;BME280;12845;52.042;6.838;2023-05-11T02:35:21;-18408.72;;;14.15;100.00
24746;BME280;12845;52.042;6.838;2023-05-11T02:37:47;-18408.72;;;14.15;100.00
24746;BME280;12845;52.042;6.838;2023-05-11T02:40:17;-18410.63;;;14.22;100.00
24746;BME280;12845;52.042;6.838;2023-05-11T02:42:43;-18408.19;;;14.13;100.00
24746;BME280;12845;52.042;6.838;2023-05-11T02:45:10;-18408.59;;;14.15;100.00
24746;BME280;12845;52.042;6.838;2023-05-11T02:47:44;-18406.66;;;14.08;100.00
24746;BME280;12845;52.042;6.838;2023-05-11T02:50:10;-18406.13;;;14.06;100.00
24746;BME280;12845;52.042;6.838;2023-05-11T02:52:37;-18401.88;;;13.90;100.00
24746;BME280;12845;52.042;6.838;2023-05-11T02:55:05;-18401.31;;;13.88;100.00
24746;BME280;12845;52.042;6.838;2023-05-11T02:57:32;-18399.81;;;13.82;100.00
24746;BME280;12845;52.042;6.838;2023-05-11T02:59:57;-18397.91;;;13.75;100.00
24746;BME280;12845;52.042;6.838;2023-05-11T03:02:23;-18398.88;;;13.79;100.00
24746;BME280;12845;52.042;6.838;2023-05-11T03:04:48;-18394.75;;;13.63;100.00
24746;BME280;12845;52.042;6.838;2023-05-11T03:07:14;-18391.59;;;13.51;100.00
24746;BME280;12845;52.042;6.838;2023-05-11T03:09:39;-18389.56;;;13.44;100.00
24746;BME280;12845;52.042;6.838;2023-05-11T03:12:04;-18389.56;;;13.44;100.00
24746;BME280;12845;52.042;6.838;2023-05-11T03:14:31;-18389.56;;;13.44;100.00
24746;BME280;12845;52.042;6.838;2023-05-11T03:16:58;-18389.00;;;13.42;100.00
24746;BME280;12845;52.042;6.838;2023-05-11T03:19:24;-18388.19;;;13.39;100.00
24746;BME280;12845;52.042;6.838;2023-05-11T03:21:50;-18385.28;;;13.28;100.00
24746;BME280;12845;52.042;6.838;2023-05-11T03:24:16;-18382.69;;;13.18;100.00
24746;BME280;12845;52.042;6.838;2023-05-11T03:26:42;-18382.97;;;13.19;100.00
24746;BME280;12845;52.042;6.838;2023-05-11T03:29:08;-18384.06;;;13.23;100.00
24746;BME280;12845;52.042;6.838;2023-05-11T03:31:34;-18386.25;;;13.31;100.00
24746;BME280;12845;52.042;6.838;2023-05-11T03:33:59;-18388.19;;;13.39;100.00
24746;BME280;12845;52.042;6.838;2023-05-11T03:36:25;-18386.81;;;13.34;100.00
24746;BME280;12845;52.042;6.838;2023-05-11T03:38:52;-18386.94;;;13.34;100.00
24746;BME280;12845;52.042;6.838;2023-05-11T03:41:18;-18385.28;;;13.28;100.00
24746;BME280;12845;52.042;6.838;2023-05-11T03:43:44;-18385.97;;;13.30;100.00
24746;BME280;12845;52.042;6.838;2023-05-11T03:46:10;-18387.34;;;13.36;100.00
24746;BME280;12845;52.042;6.838;2023-05-11T03:48:36;-18388.44;;;13.40;100.00
24746;BME280;12845;52.042;6.838;2023-05-11T03:51:02;-18387.75;;;13.37;100.00
24746;BME280;12845;52.042;6.838;2023-05-11T03:53:29;-18385.03;;;13.27;100.00
24746;BME280;12845;52.042;6.838;2023-05-11T03:55:54;-18383.50;;;13.21;100.00
24746;BME280;12845;52.042;6.838;2023-05-11T03:58:19;-18384.34;;;13.24;100.00
24746;BME280;12845;52.042;6.838;2023-05-11T04:00:46;-18382.56;;;13.18;100.00
24746;BME280;12845;52.042;6.838;2023-05-11T04:03:11;-18382.97;;;13.19;100.00
24746;BME280;12845;52.042;6.838;2023-05-11T04:05:36;-18384.75;;;13.26;100.00
24746;BME280;12845;52.042;6.838;2023-05-11T04:08:02;-18385.03;;;13.27;100.00
24746;BME280;12845;52.042;6.838;2023-05-11T04:10:28;-18384.19;;;13.24;100.00
24746;BME280;12845;52.042;6.838;2023-05-11T04:12:54;-18384.63;;;13.25;100.00
24746;BME280;12845;52.042;6.838;2023-05-11T04:15:19;-18383.91;;;13.23;100.00
24746;BME280;12845;52.042;6.838;2023-05-11T04:17:44;-18382.69;;;13.18;100.00
24746;BME280;12845;52.042;6.838;2023-05-11T04:20:10;-18383.91;;;13.23;100.00
24746;BME280;12845;52.042;6.838;2023-05-11T04:22:35;-18384.75;;;13.26;100.00
24746;BME280;12845;52.042;6.838;2023-05-11T04:25:00;-18387.34;;;13.36;100.00
24746;BME280;12845;52.042;6.838;2023-05-11T04:27:25;-18383.91;;;13.23;100.00
24746;BME280;12845;52.042;6.838;2023-05-11T04:29:51;-18385.44;;;13.28;100.00
24746;BME280;12845;52.042;6.838;2023-05-11T04:32:16;-18382.97;;;13.19;100.00
24746;BME280;12845;52.042;6.838;2023-05-11T04:34:41;-18384.63;;;13.25;100.00
24746;BME280;12845;52.042;6.838;2023-05-11T04:37:07;-18386.53;;;13.32;100.00
24746;BME280;12845;52.042;6.838;2023-05-11T04:39:33;-18386.81;;;13.34;100.00
24746;BME280;12845;52.042;6.838;2023-05-11T04:41:59;-18389.28;;;13.43;100.00
24746;BME280;12845;52.042;6.838;2023-05-11T04:44:24;-18391.88;;;13.52;100.00
24746;BME280;12845;52.042;6.838;2023-05-11T04:46:52;-18391.47;;;13.51;100.00
24746;BME280;12845;52.042;6.838;2023-05-11T04:49:17;-18392.97;;;13.57;100.00
24746;BME280;12845;52.042;6.838;2023-05-11T04:51:43;-18389.97;;;13.45;100.00
24746;BME280;12845;52.042;6.838;2023-05-11T04:54:08;-18384.06;;;13.23;100.00
24746;BME280;12845;52.042;6.838;2023-05-11T04:56:34;-18381.03;;;13.12;100.00
24746;BME280;12845;52.042;6.838;2023-05-11T04:59:04;-18381.47;;;13.14;100.00
24746;BME280;12845;52.042;6.838;2023-05-11T05:01:29;-18381.19;;;13.13;100.00
24746;BME280;12845;52.042;6.838;2023-05-11T05:03:54;-18386.25;;;13.31;100.00
24746;BME280;12845;52.042;6.838;2023-05-11T05:06:20;-18383.50;;;13.21;100.00
24746;BME280;12845;52.042;6.838;2023-05-11T05:08:45;-18385.72;;;13.29;100.00
24746;BME280;12845;52.042;6.838;2023-05-11T05:11:10;-18385.28;;;13.28;100.00
24746;BME280;12845;52.042;6.838;2023-05-11T05:13:35;-18386.53;;;13.32;100.00
24746;BME280;12845;52.042;6.838;2023-05-11T05:16:01;-18384.47;;;13.25;100.00
24746;BME280;12845;52.042;6.838;2023-05-11T05:18:26;-18383.50;;;13.21;100.00
24746;BME280;12845;52.042;6.838;2023-05-11T05:20:51;-18380.63;;;13.10;100.00
24746;BME280;12845;52.042;6.838;2023-05-11T05:23:16;-18380.91;;;13.12;100.00
24746;BME280;12845;52.042;6.838;2023-05-11T05:25:42;-18377.88;;;13.00;100.00
24746;BME280;12845;52.042;6.838;2023-05-11T05:28:07;-18382.13;;;13.16;100.00
24746;BME280;12845;52.042;6.838;2023-05-11T05:30:32;-18383.22;;;13.20;100.00
24746;BME280;12845;52.042;6.838;2023-05-11T05:32:57;-18389.28;;;13.43;100.00
24746;BME280;12845;52.042;6.838;2023-05-11T05:35:23;-18394.34;;;13.62;100.00
24746;BME280;12845;52.042;6.838;2023-05-11T05:37:48;-18393.66;;;13.59;100.00
24746;BME280;12845;52.042;6.838;2023-05-11T05:40:13;-18399.00;;;13.79;100.00
24746;BME280;12845;52.042;6.838;2023-05-11T05:42:39;-18390.78;;;13.48;100.00
24746;BME280;12845;52.042;6.838;2023-05-11T05:45:04;-18393.94;;;13.60;100.00
24746;BME280;12845;52.042;6.838;2023-05-11T05:47:30;-18395.31;;;13.65;100.00
24746;BME280;12845;52.042;6.838;2023-05-11T05:49:55;-18394.47;;;13.62;100.00
24746;BME280;12845;52.042;6.838;2023-05-11T05:52:20;-18393.94;;;13.60;100.00
24746;BME280;12845;52.042;6.838;2023-05-11T05:54:45;-18395.84;;;13.67;100.00
24746;BME280;12845;52.042;6.838;2023-05-11T05:57:11;-18398.88;;;13.79;100.00
24746;BME280;12845;52.042;6.838;2023-05-11T05:59:48;-18400.50;;;13.85;100.00
24746;BME280;12845;52.042;6.838;2023-05-11T06:02:13;-18400.66;;;13.85;100.00
24746;BME280;12845;52.042;6.838;2023-05-11T06:04:38;-18399.97;;;13.83;100.00
24746;BME280;12845;52.042;6.838;2023-05-11T06:07:03;-18405.16;;;14.02;100.00
24746;BME280;12845;52.042;6.838;2023-05-11T06:09:29;-18405.16;;;14.02;100.00
24746;BME280;12845;52.042;6.838;2023-05-11T06:11:54;-18408.59;;;14.15;100.00
24746;BME280;12845;52.042;6.838;2023-05-11T06:14:19;-18406.25;;;14.06;100.00
24746;BME280;12845;52.042;6.838;2023-05-11T06:16:46;-18405.16;;;14.02;100.00
24746;BME280;12845;52.042;6.838;2023-05-11T06:22:01;-18406.53;;;14.07;100.00
24746;BME280;12845;52.042;6.838;2023-05-11T06:24:29;-18407.63;;;14.11;100.00
24746;BME280;12845;52.042;6.838;2023-05-11T06:26:54;-18397.50;;;13.73;100.00
24746;BME280;12845;52.042;6.838;2023-05-11T06:29:20;-18397.34;;;13.73;100.00
24746;BME280;12845;52.042;6.838;2023-05-11T06:31:46;-18397.63;;;13.74;100.00
24746;BME280;12845;52.042;6.838;2023-05-11T06:34:16;-18396.41;;;13.69;100.00
24746;BME280;12845;52.042;6.838;2023-05-11T06:36:41;-18399.97;;;13.83;100.00
24746;BME280;12845;52.042;6.838;2023-05-11T06:39:06;-18399.69;;;13.82;100.00
24746;BME280;12845;52.042;6.838;2023-05-11T06:41:32;-18398.59;;;13.77;100.00
24746;BME280;12845;52.042;6.838;2023-05-11T06:43:57;-18399.56;;;13.81;100.00
24746;BME280;12845;52.042;6.838;2023-05-11T06:46:22;-18401.06;;;13.87;100.00
24746;BME280;12845;52.042;6.838;2023-05-11T06:48:47;-18408.19;;;14.13;100.00
24746;BME280;12845;52.042;6.838;2023-05-11T06:51:14;-18408.44;;;14.14;100.00
24746;BME280;12845;52.042;6.838;2023-05-11T06:53:39;-18408.88;;;14.16;100.00
24746;BME280;12845;52.042;6.838;2023-05-11T06:56:04;-18409.97;;;14.20;100.00
24746;BME280;12845;52.042;6.838;2023-05-11T06:58:30;-18406.41;;;14.07;100.00
24746;BME280;12845;52.042;6.838;2023-05-11T07:00:55;-18406.81;;;14.08;100.00
24746;BME280;12845;52.042;6.838;2023-05-11T07:03:20;-18405.44;;;14.03;100.00
24746;BME280;12845;52.042;6.838;2023-05-11T07:05:45;-18406.25;;;14.06;100.00
24746;BME280;12845;52.042;6.838;2023-05-11T07:08:11;-18406.94;;;14.09;100.00
24746;BME280;12845;52.042;6.838;2023-05-11T07:10:36;-18409.81;;;14.19;100.00
24746;BME280;12845;52.042;6.838;2023-05-11T07:13:01;-18409.81;;;14.19;100.00
24746;BME280;12845;52.042;6.838;2023-05-11T07:15:26;-18409.00;;;14.16;100.00
24746;BME280;12845;52.042;6.838;2023-05-11T07:17:51;-18410.63;;;14.22;100.00
24746;BME280;12845;52.042;6.838;2023-05-11T07:20:17;-18409.00;;;14.16;100.00
24746;BME280;12845;52.042;6.838;2023-05-11T07:22:42;-18410.91;;;14.23;100.00
24746;BME280;12845;52.042;6.838;2023-05-11T07:25:07;-18415.28;;;14.40;100.00
24746;BME280;12845;52.042;6.838;2023-05-11T07:27:35;-18412.84;;;14.31;100.00
24746;BME280;12845;52.042;6.838;2023-05-11T07:30:02;-18413.09;;;14.32;100.00
24746;BME280;12845;52.042;6.838;2023-05-11T07:32:27;-18413.09;;;14.32;100.00
24746;BME280;12845;52.042;6.838;2023-05-11T07:34:52;-18413.25;;;14.32;100.00
24746;BME280;12845;52.042;6.838;2023-05-11T07:37:18;-18421.72;;;14.64;100.00
24746;BME280;12845;52.042;6.838;2023-05-11T07:39:43;-18417.50;;;14.48;100.00
24746;BME280;12845;52.042;6.838;2023-05-11T07:42:08;-18419.41;;;14.55;100.00
24746;BME280;12845;52.042;6.838;2023-05-11T07:44:34;-18422.28;;;14.66;100.00
24746;BME280;12845;52.042;6.838;2023-05-11T07:46:59;-18423.09;;;14.69;100.00
24746;BME280;12845;52.042;6.838;2023-05-11T07:49:24;-18424.06;;;14.73;100.00
24746;BME280;12845;52.042;6.838;2023-05-11T07:51:50;-18427.47;;;14.85;100.00
24746;BME280;12845;52.042;6.838;2023-05-11T07:54:16;-18427.34;;;14.85;100.00
24746;BME280;12845;52.042;6.838;2023-05-11T07:56:45;-18427.91;;;14.87;100.00
24746;BME280;12845;52.042;6.838;2023-05-11T07:59:10;-18430.63;;;14.97;100.00
24746;BME280;12845;52.042;6.838;2023-05-11T08:01:35;-18431.31;;;15.00;100.00
24746;BME280;12845;52.042;6.838;2023-05-11T08:04:00;-18431.31;;;15.00;100.00
24746;BME280;12845;52.042;6.838;2023-05-11T08:06:26;-18432.53;;;15.04;100.00
24746;BME280;12845;52.042;6.838;2023-05-11T08:08:51;-18434.19;;;15.10;100.00
24746;BME280;12845;52.042;6.838;2023-05-11T08:11:16;-18439.94;;;15.32;100.00
24746;BME280;12845;52.042;6.838;2023-05-11T08:13:41;-18439.38;;;15.30;100.00
24746;BME280;12845;52.042;6.838;2023-05-11T08:16:07;-18440.22;;;15.33;100.00
24746;BME280;12845;52.042;6.838;2023-05-11T08:18:32;-18438.56;;;15.27;100.00
24746;BME280;12845;52.042;6.838;2023-05-11T08:20:57;-18443.91;;;15.47;100.00
24746;BME280;12845;52.042;6.838;2023-05-11T08:23:23;-18443.50;;;15.45;100.00
24746;BME280;12845;52.042;6.838;2023-05-11T08:25:48;-18440.88;;;15.35;100.00
24746;BME280;12845;52.042;6.838;2023-05-11T08:28:15;-18443.63;;;15.46;100.00
24746;BME280;12845;52.042;6.838;2023-05-11T08:30:40;-18440.88;;;15.35;100.00
24746;BME280;12845;52.042;6.838;2023-05-11T08:33:06;-18446.78;;;15.57;100.00
24746;BME280;12845;52.042;6.838;2023-05-11T08:35:32;-18447.59;;;15.61;100.00
24746;BME280;12845;52.042;6.838;2023-05-11T08:37:57;-18447.59;;;15.61;100.00
24746;BME280;12845;52.042;6.838;2023-05-11T08:40:23;-18448.69;;;15.65;100.00
24746;BME280;12845;52.042;6.838;2023-05-11T08:42:50;-18452.25;;;15.78;100.00
24746;BME280;12845;52.042;6.838;2023-05-11T08:45:18;-18449.78;;;15.69;100.00
24746;BME280;12845;52.042;6.838;2023-05-11T08:47:44;-18450.47;;;15.71;100.00
24746;BME280;12845;52.042;6.838;2023-05-11T08:50:09;-18450.34;;;15.71;100.00
24746;BME280;12845;52.042;6.838;2023-05-11T08:52:34;-18448.56;;;15.64;100.00
24746;BME280;12845;52.042;6.838;2023-05-11T08:54:59;-18447.72;;;15.61;100.00
24746;BME280;12845;52.042;6.838;2023-05-11T08:57:25;-18452.53;;;15.79;100.00
24746;BME280;12845;52.042;6.838;2023-05-11T08:59:52;-18455.53;;;15.90;100.00
24746;BME280;12845;52.042;6.838;2023-05-11T09:02:18;-18457.31;;;15.97;100.00
24746;BME280;12845;52.042;6.838;2023-05-11T09:04:44;-18461.81;;;16.14;100.00
24746;BME280;12845;52.042;6.838;2023-05-11T09:07:13;-18467.28;;;16.34;100.00
24746;BME280;12845;52.042;6.838;2023-05-11T09:09:39;-18467.28;;;16.34;100.00
24746;BME280;12845;52.042;6.838;2023-05-11T09:12:06;-18467.41;;;16.35;100.00
24746;BME280;12845;52.042;6.838;2023-05-11T09:14:31;-18465.63;;;16.28;100.00
24746;BME280;12845;52.042;6.838;2023-05-11T09:16:57;-18469.75;;;16.43;100.00
24746;BME280;12845;52.042;6.838;2023-05-11T09:19:22;-18475.06;;;16.63;100.00
24746;BME280;12845;52.042;6.838;2023-05-11T09:21:47;-18475.75;;;16.66;100.00
24746;BME280;12845;52.042;6.838;2023-05-11T09:24:13;-18481.22;;;16.86;100.00
24746;BME280;12845;52.042;6.838;2023-05-11T09:26:38;-18482.59;;;16.91;100.00
24746;BME280;12845;52.042;6.838;2023-05-11T09:29:03;-18485.59;;;17.03;100.00
24746;BME280;12845;52.042;6.838;2023-05-11T09:31:35;-18485.88;;;17.04;100.00
24746;BME280;12845;52.042;6.838;2023-05-11T09:34:17;-18482.88;;;16.92;100.00
24746;BME280;12845;52.042;6.838;2023-05-11T09:36:43;-18486.13;;;17.05;100.00
24746;BME280;12845;52.042;6.838;2023-05-11T09:39:09;-18484.09;;;16.97;100.00
24746;BME280;12845;52.042;6.838;2023-05-11T09:41:34;-18485.59;;;17.03;100.00
24746;BME280;12845;52.042;6.838;2023-05-11T09:44:04;-18482.72;;;16.92;100.00
24746;BME280;12845;52.042;6.838;2023-05-11T09:46:29;-18485.44;;;17.02;100.00
24746;BME280;12845;52.042;6.838;2023-05-11T09:48:58;-18491.47;;;17.25;100.00
24746;BME280;12845;52.042;6.838;2023-05-11T09:51:30;-18499.78;;;17.56;100.00
24746;BME280;12845;52.042;6.838;2023-05-11T09:53:56;-18495.97;;;17.42;100.00
24746;BME280;12845;52.042;6.838;2023-05-11T09:56:21;-18501.00;;;17.60;100.00
24746;BME280;12845;52.042;6.838;2023-05-11T09:58:48;-18504.69;;;17.74;100.00
24746;BME280;12845;52.042;6.838;2023-05-11T10:01:14;-18501.84;;;17.64;100.00
24746;BME280;12845;52.042;6.838;2023-05-11T10:03:50;-18498.44;;;17.51;100.00
24746;BME280;12845;52.042;6.838;2023-05-11T10:06:15;-18497.06;;;17.46;100.00
24746;BME280;12845;52.042;6.838;2023-05-11T10:08:41;-18499.38;;;17.54;100.00
24746;BME280;12845;52.042;6.838;2023-05-11T10:11:06;-18499.94;;;17.56;100.00
24746;BME280;12845;52.042;6.838;2023-05-11T10:13:32;-18501.56;;;17.63;100.00
24746;BME280;12845;52.042;6.838;2023-05-11T10:15:58;-18499.78;;;17.56;100.00
24746;BME280;12845;52.042;6.838;2023-05-11T10:18:27;-18501.00;;;17.60;100.00
24746;BME280;12845;52.042;6.838;2023-05-11T10:20:52;-18502.94;;;17.68;100.00
24746;BME280;12845;52.042;6.838;2023-05-11T10:23:18;-18504.69;;;17.74;100.00
24746;BME280;12845;52.042;6.838;2023-05-11T10:25:44;-18503.63;;;17.70;100.00
24746;BME280;12845;52.042;6.838;2023-05-11T10:28:10;-18503.47;;;17.70;100.00
24746;BME280;12845;52.042;6.838;2023-05-11T10:30:35;-18510.44;;;17.96;100.00
24746;BME280;12845;52.042;6.838;2023-05-11T10:33:01;-18508.13;;;17.87;100.00
24746;BME280;12845;52.042;6.838;2023-05-11T10:35:26;-18514.25;;;18.10;100.00
24746;BME280;12845;52.042;6.838;2023-05-11T10:37:52;-18515.06;;;18.13;100.00
24746;BME280;12845;52.042;6.838;2023-05-11T10:40:17;-18513.72;;;18.08;100.00
24746;BME280;12845;52.042;6.838;2023-05-11T10:50:53;-18513.16;;;18.06;100.00
24746;BME280;12845;52.042;6.838;2023-05-11T10:53:33;-18508.13;;;17.87;100.00
24746;BME280;12845;52.042;6.838;2023-05-11T11:03:56;-18511.81;;;18.01;100.00
24746;BME280;12845;52.042;6.838;2023-05-11T11:06:27;-18513.72;;;18.08;100.00
24746;BME280;12845;52.042;6.838;2023-05-11T11:08:59;-18514.53;;;18.11;100.00
24746;BME280;12845;52.042;6.838;2023-05-11T11:11:32;-18512.47;;;18.03;100.00
24746;BME280;12845;52.042;6.838;2023-05-11T11:13:58;-18511.53;;;18.00;100.00
24746;BME280;12845;52.042;6.838;2023-05-11T11:16:26;-18508.94;;;17.90;100.00
24746;BME280;12845;52.042;6.838;2023-05-11T11:19:14;-18506.88;;;17.83;100.00
24746;BME280;12845;52.042;6.838;2023-05-11T11:21:38;-18504.03;;;17.72;100.00
24746;BME280;12845;52.042;6.838;2023-05-11T11:24:03;-18504.69;;;17.74;100.00
24746;BME280;12845;52.042;6.838;2023-05-11T11:29:27;-18500.59;;;17.59;100.00
24746;BME280;12845;52.042;6.838;2023-05-11T11:31:52;-18496.09;;;17.42;100.00
24746;BME280;12845;52.042;6.838;2023-05-11T11:39:20;-18492.41;;;17.28;100.00
24746;BME280;12845;52.042;6.838;2023-05-11T11:41:52;-18488.06;;;17.12;100.00
24746;BME280;12845;52.042;6.838;2023-05-11T11:44:23;-18488.06;;;17.12;100.00
24746;BME280;12845;52.042;6.838;2023-05-11T11:46:48;-18487.22;;;17.09;100.00
24746;BME280;12845;52.042;6.838;2023-05-11T11:49:33;-18484.22;;;16.98;100.00
24746;BME280;12845;52.042;6.838;2023-05-11T11:51:59;-18483.13;;;16.94;100.00
24746;BME280;12845;52.042;6.838;2023-05-11T11:54:35;-18482.59;;;16.91;100.00
24746;BME280;12845;52.042;6.838;2023-05-11T11:57:01;-18484.63;;;16.99;100.00
24746;BME280;12845;52.042;6.838;2023-05-11T11:59:26;-18483.69;;;16.96;100.00
24746;BME280;12845;52.042;6.838;2023-05-11T12:01:52;-18481.63;;;16.88;100.00
24746;BME280;12845;52.042;6.838;2023-05-11T12:07:14;-18483.13;;;16.94;100.00
24746;BME280;12845;52.042;6.838;2023-05-11T12:09:39;-18484.09;;;16.97;100.00
24746;BME280;12845;52.042;6.838;2023-05-11T12:12:05;-18483.13;;;16.94;100.00
24746;BME280;12845;52.042;6.838;2023-05-11T12:14:30;-18483.13;;;16.94;100.00
24746;BME280;12845;52.042;6.838;2023-05-11T12:17:00;-18481.34;;;16.87;100.00
24746;BME280;12845;52.042;6.838;2023-05-11T12:19:25;-18479.72;;;16.81;100.00
24746;BME280;12845;52.042;6.838;2023-05-11T12:21:50;-18481.34;;;16.87;100.00
24746;BME280;12845;52.042;6.838;2023-05-11T12:24:15;-18480.69;;;16.84;100.00
24746;BME280;12845;52.042;6.838;2023-05-11T12:26:41;-18484.91;;;17.00;100.00
24746;BME280;12845;52.042;6.838;2023-05-11T12:29:10;-18484.22;;;16.98;100.00
24746;BME280;12845;52.042;6.838;2023-05-11T12:31:43;-18491.31;;;17.24;100.00
24746;BME280;12845;52.042;6.838;2023-05-11T12:34:15;-18484.22;;;16.98;100.00
24746;BME280;12845;52.042;6.838;2023-05-11T12:36:41;-18485.03;;;17.01;100.00
24746;BME280;12845;52.042;6.838;2023-05-11T12:39:06;-18484.91;;;17.00;100.00
24746;BME280;12845;52.042;6.838;2023-05-11T12:41:31;-18485.03;;;17.01;100.00
24746;BME280;12845;52.042;6.838;2023-05-11T12:43:57;-18483.13;;;16.94;100.00
24746;BME280;12845;52.042;6.838;2023-05-11T12:46:22;-18481.34;;;16.87;100.00
24746;BME280;12845;52.042;6.838;2023-05-11T12:48:48;-18483.28;;;16.94;100.00
24746;BME280;12845;52.042;6.838;2023-05-11T12:53:58;-18488.88;;;17.15;100.00
24746;BME280;12845;52.042;6.838;2023-05-11T12:56:23;-18491.59;;;17.25;100.00
24746;BME280;12845;52.042;6.838;2023-05-11T12:58:48;-18495.16;;;17.39;100.00
24746;BME280;12845;52.042;6.838;2023-05-11T13:01:14;-18494.06;;;17.34;100.00
24746;BME280;12845;52.042;6.838;2023-05-11T13:03:39;-18493.66;;;17.33;100.00
24746;BME280;12845;52.042;6.838;2023-05-11T13:06:10;-18497.88;;;17.49;100.00
24746;BME280;12845;52.042;6.838;2023-05-11T13:08:36;-18496.91;;;17.45;100.00
24746;BME280;12845;52.042;6.838;2023-05-11T13:11:21;-18499.78;;;17.56;100.00
24746;BME280;12845;52.042;6.838;2023-05-11T13:13:50;-18506.47;;;17.81;100.00